Time;durP1;ratioP1;P1;durP2;ratioP2;P2;SDS_P1;SDS_P2;PMS_P1;PMS_P2;Temp;Humidity;BMP_temperature;BMP_pressure;BME280_temperature;BME280_humidity;BME280_pressure;Samples;Min_cycle;Max_cycle;Signal;HPM_P1;HPM_P2
2022/06/22 00:01:49;;;;;;;4.83;2.00;;;15.30;1.00;;;;;;4972660;28;20212;-62
2022/06/22 00:04:19;;;;;;;4.57;3.13;;;15.30;1.00;;;;;;4972392;28;20209;-62
2022/06/22 00:06:51;;;;;;;2.47;2.10;;;15.20;1.00;;;;;;4972404;28;20224;-62
2022/06/22 00:09:24;;;;;;;7.13;2.57;;;15.20;1.00;;;;;;4972361;28;20259;-62
2022/06/22 00:11:51;;;;;;;5.87;1.90;;;15.00;1.00;;;;;;4972750;28;20212;-62
2022/06/22 00:14:19;;;;;;;6.27;2.23;;;14.90;1.00;;;;;;4972471;28;20299;-62
2022/06/22 00:16:51;;;;;;;3.70;2.47;;;14.90;1.00;;;;;;4971828;28;20229;-62
2022/06/22 00:19:28;;;;;;;6.27;2.27;;;14.90;1.00;;;;;;4972739;28;20271;-62
2022/06/22 00:21:57;;;;;;;3.70;2.03;;;14.80;1.00;;;;;;4972427;28;20212;-62
2022/06/22 00:24:41;;;;;;;6.33;2.67;;;14.80;65.50;;;;;;4975683;28;20269;-62
2022/06/22 00:27:21;;;;;;;4.77;2.40;;;14.70;99.90;;;;;;4975295;28;20227;-62
2022/06/22 00:30:15;;;;;;;7.07;2.80;;;14.70;99.90;;;;;;4975998;28;20206;-63
2022/06/22 00:32:55;;;;;;;3.43;2.50;;;14.60;99.90;;;;;;4974737;28;20208;-62
2022/06/22 00:35:46;;;;;;;6.40;3.13;;;14.60;99.90;;;;;;4975622;28;20633;-62
2022/06/22 00:38:17;;;;;;;8.87;2.63;;;14.50;99.90;;;;;;4972523;28;20232;-62
2022/06/22 00:40:44;;;;;;;5.40;2.70;;;14.50;99.90;;;;;;4975787;28;20269;-60
2022/06/22 00:43:15;;;;;;;5.13;2.13;;;14.40;99.90;;;;;;4975599;28;20211;-60
2022/06/22 00:45:42;;;;;;;6.03;2.10;;;14.30;99.90;;;;;;4975594;28;20231;-61
2022/06/22 00:48:21;;;;;;;5.23;2.30;;;14.30;1.00;;;;;;4975171;28;20670;-62
2022/06/22 00:50:54;;;;;;;4.53;2.57;;;14.30;1.00;;;;;;4975344;28;20283;-61
2022/06/22 00:53:29;;;;;;;3.57;2.33;;;14.20;1.00;;;;;;4975903;28;20208;-61
2022/06/22 00:56:03;;;;;;;5.30;2.53;;;14.20;1.00;;;;;;4975149;28;20808;-61
2022/06/22 00:58:35;;;;;;;9.73;3.80;;;14.20;1.00;;;;;;4975358;28;20231;-60
2022/06/22 01:01:07;;;;;;;5.17;2.70;;;14.20;7.00;;;;;;4975680;28;20211;-61
2022/06/22 01:03:39;;;;;;;3.30;2.50;;;14.10;62.10;;;;;;4975680;28;20215;-62
2022/06/22 01:06:14;;;;;;;5.63;2.47;;;14.10;99.90;;;;;;4974644;28;20291;-62
2022/06/22 01:08:48;;;;;;;5.77;2.47;;;14.10;99.90;;;;;;4975126;28;20211;-62
2022/06/22 01:14:11;;;;;;;6.67;3.30;;;14.00;99.90;;;;;;4975226;28;20206;-61
2022/06/22 01:16:40;;;;;;;8.40;2.80;;;14.00;99.90;;;;;;4974688;28;20302;-61
2022/06/22 01:19:28;;;;;;;3.83;2.60;;;14.00;99.90;;;;;;4975651;28;20217;-61
2022/06/22 01:22:11;;;;;;;5.07;1.97;;;13.90;99.90;;;;;;4975181;28;20216;-61
2022/06/22 01:24:49;;;;;;;4.73;2.87;;;13.90;99.90;;;;;;4974963;28;20208;-60
2022/06/22 01:27:24;;;;;;;8.00;2.83;;;13.80;99.90;;;;;;4974417;28;20644;-61
2022/06/22 01:29:53;;;;;;;6.63;2.57;;;13.80;99.90;;;;;;4974687;28;20301;-61
2022/06/22 01:32:23;;;;;;;8.47;2.83;;;13.80;1.00;;;;;;4974738;28;20212;-61
2022/06/22 01:34:54;;;;;;;6.60;2.80;;;13.80;1.00;;;;;;4973610;28;20216;-61
2022/06/22 01:37:24;;;;;;;5.37;2.50;;;13.70;1.00;;;;;;4974235;28;20725;-61
2022/06/22 01:39:51;;;;;;;5.83;2.63;;;13.70;99.90;;;;;;4974492;28;20732;-60
2022/06/22 01:42:25;;;;;;;6.43;2.90;;;13.60;99.90;;;;;;4974353;28;20246;-61
2022/06/22 01:44:57;;;;;;;5.17;3.07;;;13.60;99.90;;;;;;4974649;28;20262;-62
2022/06/22 01:47:30;;;;;;;7.20;4.70;;;13.60;99.90;;;;;;4974017;28;20236;-62
2022/06/22 01:50:07;;;;;;;7.67;2.93;;;13.60;99.90;;;;;;4974440;28;20239;-61
2022/06/22 01:52:45;;;;;;;7.33;2.90;;;13.50;5.90;;;;;;4974112;28;20200;-61
2022/06/22 01:55:27;;;;;;;7.30;3.10;;;13.40;1.00;;;;;;4974409;28;20207;-61
2022/06/22 01:58:01;;;;;;;4.27;2.80;;;13.30;85.60;;;;;;4973695;28;20276;-61
2022/06/22 02:00:28;;;;;;;5.37;3.10;;;13.30;99.90;;;;;;4974194;28;20682;-61
2022/06/22 02:03:01;;;;;;;6.90;3.20;;;13.30;99.90;;;;;;4973886;28;20208;-62
2022/06/22 02:05:31;;;;;;;4.73;2.80;;;13.30;1.00;;;;;;4974264;28;20234;-61
2022/06/22 02:08:03;;;;;;;6.03;2.90;;;13.20;1.00;;;;;;4973992;28;20200;-61
2022/06/22 02:10:38;;;;;;;6.10;3.23;;;13.10;1.00;;;;;;4974196;28;20257;-62
2022/06/22 02:13:15;;;;;;;6.43;3.73;;;13.10;43.90;;;;;;4973728;28;20265;-61
2022/06/22 02:15:50;;;;;;;4.27;2.73;;;13.10;95.00;;;;;;4973718;28;20801;-62
2022/06/22 02:18:22;;;;;;;5.17;2.97;;;13.00;99.90;;;;;;4973849;28;20281;-61
2022/06/22 02:20:49;;;;;;;8.37;3.57;;;13.10;99.90;;;;;;4973942;28;20208;-62
2022/06/22 02:23:20;;;;;;;7.33;3.93;;;13.00;99.90;;;;;;4973750;28;20214;-61
2022/06/22 02:25:53;;;;;;;4.33;3.20;;;13.00;99.90;;;;;;4973407;28;20232;-62
2022/06/22 02:28:21;;;;;;;7.77;3.60;;;12.90;99.90;;;;;;4973910;28;20204;-62
2022/06/22 02:30:48;;;;;;;5.40;3.33;;;12.90;99.90;;;;;;4973657;28;20668;-62
2022/06/22 02:33:16;;;;;;;5.17;3.00;;;12.90;99.90;;;;;;4973715;28;20211;-62
2022/06/22 02:35:44;;;;;;;7.37;3.37;;;12.90;99.90;;;;;;4973355;28;20234;-62
2022/06/22 02:38:13;;;;;;;5.17;2.70;;;12.90;99.90;;;;;;4973247;28;20220;-62
2022/06/22 02:46:20;;;;;;;9.10;3.40;;;12.80;99.90;;;;;;4972700;28;20226;-61
2022/06/22 02:48:52;;;;;;;6.97;3.30;;;12.80;99.90;;;;;;4973281;28;20200;-62
2022/06/22 02:51:24;;;;;;;5.03;3.53;;;12.80;99.90;;;;;;4973596;28;20217;-61
2022/06/22 02:53:52;;;;;;;5.63;3.60;;;12.70;99.90;;;;;;4973175;28;20200;-61
2022/06/22 02:56:22;;;;;;;5.03;3.43;;;12.60;99.90;;;;;;4973032;28;20296;-62
2022/06/22 02:58:50;;;;;;;9.27;3.70;;;12.60;99.90;;;;;;4972986;28;20295;-62
2022/06/22 03:01:19;;;;;;;6.57;3.77;;;12.60;99.90;;;;;;4972980;28;20213;-62
2022/06/22 03:03:51;;;;;;;7.47;3.67;;;12.50;99.90;;;;;;4973084;28;20215;-62
2022/06/22 03:06:22;;;;;;;6.10;3.70;;;12.50;99.90;;;;;;4973044;28;20660;-62
2022/06/22 03:08:50;;;;;;;7.80;3.60;;;12.50;99.90;;;;;;4973130;28;20675;-62
2022/06/22 03:11:18;;;;;;;10.03;3.73;;;12.50;99.90;;;;;;4972862;28;20294;-62
2022/06/22 03:13:50;;;;;;;4.03;3.10;;;12.50;99.90;;;;;;4973211;28;20262;-62
2022/06/22 03:16:26;;;;;;;7.93;3.33;;;12.50;99.90;;;;;;4972638;28;20298;-61
2022/06/22 03:18:54;;;;;;;7.67;3.30;;;12.50;99.90;;;;;;4973391;28;20224;-61
2022/06/22 03:21:21;;;;;;;5.60;3.30;;;12.50;99.90;;;;;;4973150;28;20208;-62
2022/06/22 03:23:53;;;;;;;5.43;3.27;;;12.50;99.90;;;;;;4973088;28;20204;-62
2022/06/22 03:26:23;;;;;;;3.90;3.00;;;12.40;99.90;;;;;;4972498;28;20648;-62
2022/06/22 03:28:55;;;;;;;6.53;3.83;;;12.40;99.90;;;;;;4973177;28;20258;-62
2022/06/22 03:31:27;;;;;;;7.93;3.70;;;12.40;99.90;;;;;;4973016;28;20412;-62
2022/06/22 03:33:58;;;;;;;3.93;3.33;;;12.40;99.90;;;;;;4973024;28;20213;-62
2022/06/22 03:36:32;;;;;;;6.40;3.17;;;12.40;99.90;;;;;;4972293;28;20225;-62
2022/06/22 03:39:03;;;;;;;6.07;3.60;;;12.40;99.90;;;;;;4972551;28;20229;-62
2022/06/22 03:41:34;;;;;;;8.67;3.50;;;12.40;99.90;;;;;;4972856;28;20212;-62
2022/06/22 03:44:05;;;;;;;5.53;3.30;;;12.30;99.90;;;;;;4972651;28;20211;-62
2022/06/22 03:46:37;;;;;;;4.43;3.60;;;12.30;99.90;;;;;;4972501;28;20232;-62
2022/06/22 03:49:07;;;;;;;4.47;3.60;;;12.30;99.90;;;;;;4972554;28;20212;-62
2022/06/22 03:51:41;;;;;;;5.60;3.70;;;12.30;99.90;;;;;;4973027;28;20212;-62
2022/06/22 03:54:13;;;;;;;6.07;4.00;;;12.40;99.90;;;;;;4972805;28;20659;-62
2022/06/22 03:56:44;;;;;;;6.47;3.57;;;12.40;99.90;;;;;;4972458;28;20241;-62
2022/06/22 03:59:12;;;;;;;9.03;3.70;;;12.50;99.90;;;;;;4975702;28;20236;-62
2022/06/22 04:01:41;;;;;;;6.53;4.10;;;12.50;99.90;;;;;;4976164;28;20209;-62
2022/06/22 04:04:08;;;;;;;5.43;3.87;;;12.40;99.90;;;;;;4976474;28;20212;-61
2022/06/22 04:06:38;;;;;;;5.97;3.63;;;12.50;99.90;;;;;;4975840;28;20232;-62
2022/06/22 04:09:17;;;;;;;14.70;4.67;;;12.50;99.90;;;;;;4976456;28;20259;-62
2022/06/22 04:11:48;;;;;;;7.67;3.80;;;12.60;99.90;;;;;;4975949;28;20216;-62
2022/06/22 04:14:20;;;;;;;6.37;3.43;;;12.70;99.90;;;;;;4975967;28;20605;-62
2022/06/22 04:16:53;;;;;;;4.87;3.60;;;12.80;99.90;;;;;;4975700;28;20229;-62
2022/06/22 04:19:25;;;;;;;7.10;3.63;;;13.00;99.90;;;;;;4976246;28;20228;-62
2022/06/22 04:21:57;;;;;;;8.37;4.37;;;13.00;99.90;;;;;;4975978;28;20209;-62
2022/06/22 04:24:29;;;;;;;10.50;3.87;;;13.10;99.90;;;;;;4976362;28;20193;-62
2022/06/22 04:27:01;;;;;;;7.47;3.53;;;13.20;99.90;;;;;;4975406;28;20719;-60
2022/06/22 04:29:34;;;;;;;8.97;4.07;;;13.30;99.90;;;;;;4975874;28;20270;-60
2022/06/22 04:32:11;;;;;;;4.83;3.97;;;13.30;99.90;;;;;;4975993;28;20267;-60
2022/06/22 04:34:42;;;;;;;5.90;4.13;;;13.40;99.90;;;;;;4975590;28;20215;-60
2022/06/22 04:37:15;;;;;;;6.60;4.70;;;13.40;99.90;;;;;;4975328;28;20260;-60
2022/06/22 04:39:49;;;;;;;8.40;4.97;;;13.50;99.90;;;;;;4975632;28;20232;-60
2022/06/22 04:42:16;;;;;;;6.47;4.07;;;13.60;98.60;;;;;;4975961;28;20209;-60
2022/06/22 04:44:46;;;;;;;6.83;4.07;;;13.70;95.90;;;;;;4981648;28;20265;-61
2022/06/22 04:47:20;;;;;;;10.93;4.47;;;13.80;91.00;;;;;;4993575;28;20267;-61
2022/06/22 04:49:51;;;;;;;7.70;4.20;;;13.90;67.70;;;;;;4994716;28;20273;-61
2022/06/22 04:52:22;;;;;;;7.03;4.50;;;14.00;63.30;;;;;;4994996;28;20212;-61
2022/06/22 04:54:53;;;;;;;7.57;3.57;;;14.00;63.10;;;;;;4995247;28;20210;-60
2022/06/22 04:57:24;;;;;;;7.40;4.37;;;14.20;53.30;;;;;;4993989;28;20250;-63
2022/06/22 04:59:51;;;;;;;7.03;4.37;;;14.30;55.30;;;;;;4994748;28;20239;-61
2022/06/22 05:02:22;;;;;;;6.57;3.70;;;14.40;45.40;;;;;;4994232;28;20270;-60
2022/06/22 05:04:52;;;;;;;6.87;4.60;;;14.50;27.20;;;;;;4995103;28;20269;-60
2022/06/22 05:07:34;;;;;;;9.23;4.53;;;14.60;12.00;;;;;;4994313;28;20234;-61
2022/06/22 05:10:09;;;;;;;5.10;4.23;;;14.50;8.10;;;;;;4995199;28;20238;-62
2022/06/22 05:12:47;;;;;;;5.87;4.13;;;14.60;1.00;;;;;;4994341;28;20218;-60
2022/06/22 05:15:22;;;;;;;6.40;3.90;;;14.50;1.00;;;;;;4994111;28;20215;-61
2022/06/22 05:17:51;;;;;;;6.73;4.53;;;14.60;1.00;;;;;;4994015;28;20203;-61
2022/06/22 05:20:26;;;;;;;9.17;4.47;;;14.60;1.00;;;;;;4994028;28;20258;-61
2022/06/22 05:22:58;;;;;;;5.97;4.63;;;14.60;1.00;;;;;;4993572;28;20243;-60
2022/06/22 05:25:25;;;;;;;6.70;4.27;;;14.70;1.00;;;;;;4993787;28;20236;-59
2022/06/22 05:27:59;;;;;;;5.13;4.57;;;14.70;1.00;;;;;;4994162;28;20206;-60
2022/06/22 05:30:28;;;;;;;7.27;4.80;;;14.80;1.00;;;;;;4994075;28;20209;-61
2022/06/22 05:33:02;;;;;;;8.47;4.83;;;14.80;1.00;;;;;;4993927;28;20222;-61
2022/06/22 05:35:33;;;;;;;7.40;5.17;;;14.90;1.00;;;;;;4993562;28;20282;-61
2022/06/22 05:38:03;;;;;;;8.90;4.40;;;15.00;99.90;;;;;;4993124;28;20632;-61
2022/06/22 05:40:32;;;;;;;11.00;5.47;;;15.10;99.90;;;;;;4994271;28;20596;-63
2022/06/22 05:42:58;;;;;;;8.40;5.00;;;15.10;99.90;;;;;;4990846;28;20214;-60
2022/06/22 05:45:28;;;;;;;7.50;5.27;;;15.10;99.90;;;;;;4988565;28;20286;-60
2022/06/22 05:47:57;;;;;;;9.77;5.10;;;15.20;99.90;;;;;;4992007;28;20215;-60
2022/06/22 05:50:35;;;;;;;7.53;4.73;;;15.30;99.90;;;;;;4993572;28;20211;-60
2022/06/22 05:53:09;;;;;;;7.83;5.47;;;15.40;99.90;;;;;;4993062;28;20208;-60
2022/06/22 05:55:46;;;;;;;10.50;5.13;;;15.50;99.90;;;;;;4992728;28;20230;-60
2022/06/22 05:58:18;;;;;;;15.37;8.50;;;15.50;7.30;;;;;;4992727;28;20555;-62
2022/06/22 06:00:47;;;;;;;9.07;5.13;;;15.60;1.00;;;;;;4993030;28;20203;-62
2022/06/22 06:03:35;;;;;;;5.70;4.73;;;15.80;1.00;;;;;;4993337;28;20203;-64
2022/06/22 06:06:06;;;;;;;7.80;4.47;;;15.90;1.00;;;;;;4992205;28;20677;-63
2022/06/22 06:08:40;;;;;;;7.17;4.67;;;16.10;1.00;;;;;;4993238;28;20319;-62
2022/06/22 06:11:11;;;;;;;7.40;4.63;;;16.20;1.00;;;;;;4992852;28;20208;-60
2022/06/22 06:13:40;;;;;;;6.23;4.27;;;16.30;1.00;;;;;;4992697;28;20215;-61
2022/06/22 06:16:13;;;;;;;12.17;4.70;;;16.40;1.00;;;;;;4991904;28;20835;-60
2022/06/22 06:18:43;;;;;;;8.47;4.60;;;16.40;1.00;;;;;;4992367;28;20278;-61
2022/06/22 06:21:15;;;;;;;10.40;4.53;;;16.50;1.00;;;;;;4992007;28;20207;-62
2022/06/22 06:23:46;;;;;;;7.90;4.50;;;16.70;1.00;;;;;;4992357;28;20211;-62
2022/06/22 06:29:16;;;;;;;8.13;4.37;;;16.80;1.00;;;;;;4992294;28;20585;-60
2022/06/22 06:31:54;;;;;;;6.33;4.77;;;16.90;1.00;;;;;;4992223;28;20207;-61
2022/06/22 06:34:27;;;;;;;7.63;4.50;;;16.90;1.00;;;;;;4992650;28;20211;-62
2022/06/22 06:37:01;;;;;;;6.00;4.33;;;17.00;1.00;;;;;;4991532;28;20800;-62
2022/06/22 06:39:33;;;;;;;5.37;4.10;;;17.10;1.00;;;;;;4992498;28;20240;-61
2022/06/22 06:42:06;;;;;;;6.10;3.80;;;17.30;1.00;;;;;;4991802;28;20208;-62
2022/06/22 06:44:36;;;;;;;12.33;4.33;;;17.50;1.00;;;;;;4992452;28;20250;-61
2022/06/22 06:47:07;;;;;;;6.00;4.17;;;17.40;99.90;;;;;;4991624;28;20223;-61
2022/06/22 06:49:39;;;;;;;11.67;4.53;;;17.60;99.90;;;;;;4992207;28;20239;-61
2022/06/22 06:52:17;;;;;;;7.27;4.30;;;17.70;99.90;;;;;;4992320;28;20632;-61
2022/06/22 06:54:49;;;;;;;6.87;4.43;;;17.90;99.90;;;;;;4991751;28;20208;-59
2022/06/22 06:57:19;;;;;;;15.57;5.27;;;17.90;99.90;;;;;;4991557;28;20737;-59
2022/06/22 06:59:47;;;;;;;9.70;4.33;;;18.10;99.90;;;;;;4991588;28;20257;-59
2022/06/22 07:02:19;;;;;;;8.93;4.23;;;18.20;99.90;;;;;;4992278;28;20216;-65
2022/06/22 07:04:48;;;;;;;9.87;4.43;;;18.20;99.90;;;;;;4991961;28;20212;-62
2022/06/22 07:07:26;;;;;;;10.67;4.07;;;18.20;99.90;;;;;;4991074;28;20315;-61
2022/06/22 07:09:56;;;;;;;7.57;3.83;;;18.40;99.90;;;;;;4992004;28;20215;-61
2022/06/22 07:12:29;;;;;;;9.87;4.30;;;18.50;99.90;;;;;;4991545;28;20208;-61
2022/06/22 07:14:58;;;;;;;7.23;4.13;;;18.60;99.90;;;;;;4992035;28;20219;-63
2022/06/22 07:17:25;;;;;;;5.20;3.93;;;18.80;99.90;;;;;;4990900;28;20239;-62
2022/06/22 07:19:59;;;;;;;8.80;3.83;;;18.90;99.90;;;;;;4991895;28;20891;-62
2022/06/22 07:22:31;;;;;;;8.60;3.87;;;18.80;99.90;;;;;;4991983;28;20242;-62
2022/06/22 07:25:02;;;;;;;11.70;4.23;;;18.90;99.90;;;;;;4991472;28;20207;-62
2022/06/22 07:27:34;;;;;;;6.70;3.63;;;19.20;99.90;;;;;;4991473;28;20228;-63
2022/06/22 07:30:05;;;;;;;6.00;3.30;;;19.40;99.90;;;;;;4991637;28;20648;-61
2022/06/22 07:32:38;;;;;;;6.47;3.40;;;19.50;99.90;;;;;;4994231;28;20682;-62
2022/06/22 07:35:15;;;;;;;7.10;3.30;;;19.60;99.90;;;;;;4995550;28;20207;-63
2022/06/22 07:37:46;;;;;;;6.87;3.47;;;19.80;99.90;;;;;;4995325;28;20261;-62
2022/06/22 07:40:16;;;;;;;8.77;3.13;;;20.00;99.90;;;;;;4995706;28;20227;-62
2022/06/22 07:42:45;;;;;;;9.17;3.13;;;20.10;99.90;;;;;;4995004;28;20302;-61
2022/06/22 07:45:16;;;;;;;6.77;3.13;;;19.90;99.90;;;;;;4995475;28;20203;-61
2022/06/22 07:47:51;;;;;;;8.87;3.50;;;20.10;99.90;;;;;;4994906;28;20218;-61
2022/06/22 07:50:24;;;;;;;9.00;3.10;;;20.30;99.90;;;;;;4995608;28;20210;-62
2022/06/22 07:52:54;;;;;;;8.00;3.00;;;20.40;99.90;;;;;;4994895;28;20207;-62
2022/06/22 07:55:31;;;;;;;8.50;2.70;;;20.80;99.90;;;;;;4995355;28;20212;-61
2022/06/22 07:58:20;;;;;;;5.60;2.43;;;21.00;99.90;;;;;;4995172;28;20208;-62
2022/06/22 08:00:50;;;;;;;7.70;2.73;;;21.10;99.90;;;;;;4995223;28;20232;-63
2022/06/22 08:03:25;;;;;;;6.07;2.37;;;21.10;99.90;;;;;;4995198;28;20242;-64
2022/06/22 08:05:56;;;;;;;5.70;2.60;;;21.00;99.90;;;;;;4994612;28;20322;-64
2022/06/22 08:08:28;;;;;;;4.67;2.50;;;21.00;99.90;;;;;;4995286;28;20678;-62
2022/06/22 08:11:00;;;;;;;6.87;2.67;;;21.00;99.90;;;;;;4995157;28;20188;-61
2022/06/22 08:13:31;;;;;;;4.20;2.40;;;21.00;99.90;;;;;;4995329;28;20218;-61
2022/06/22 08:16:06;;;;;;;4.00;2.43;;;21.00;99.90;;;;;;4994528;28;20231;-63
2022/06/22 08:18:33;;;;;;;4.27;2.33;;;21.20;99.90;;;;;;4995140;28;20213;-63
2022/06/22 08:21:01;;;;;;;5.07;2.13;;;21.50;99.90;;;;;;4995203;28;20271;-63
2022/06/22 08:23:32;;;;;;;2.97;1.93;;;21.50;99.90;;;;;;4994597;28;20219;-65
2022/06/22 08:26:01;;;;;;;4.50;2.10;;;21.60;99.90;;;;;;4994371;28;20712;-65
2022/06/22 08:28:30;;;;;;;5.50;2.10;;;21.60;99.90;;;;;;4993827;28;20215;-65
2022/06/22 08:30:57;;;;;;;6.63;2.27;;;21.80;99.90;;;;;;4994832;28;20417;-64
2022/06/22 08:33:29;;;;;;;4.07;2.20;;;22.00;99.90;;;;;;4994720;28;20211;-64
2022/06/22 08:35:59;;;;;;;3.40;1.97;;;22.00;99.90;;;;;;4991911;28;20231;-64
2022/06/22 08:38:33;;;;;;;3.77;2.03;;;22.30;99.90;;;;;;4994746;28;20258;-63
2022/06/22 08:41:07;;;;;;;4.47;2.23;;;22.40;99.90;;;;;;4993927;28;20221;-64
2022/06/22 08:43:43;;;;;;;4.10;2.20;;;22.60;99.90;;;;;;4994246;28;20648;-63
2022/06/22 08:46:38;;;;;;;3.20;2.10;;;22.80;99.90;;;;;;4994321;28;20320;-64
2022/06/22 08:49:34;;;;;;;3.60;2.13;;;22.90;99.90;;;;;;4994502;28;20251;-63
2022/06/22 08:52:27;;;;;;;5.87;1.90;;;22.90;99.90;;;;;;4964886;28;20206;-63
2022/06/22 08:55:08;;;;;;;4.73;2.00;;;23.00;99.90;;;;;;4975163;28;20208;-64
2022/06/22 08:57:54;;;;;;;5.63;2.10;;;23.00;99.90;;;;;;4974220;28;20275;-64
2022/06/22 09:00:29;;;;;;;5.87;2.07;;;22.80;99.90;;;;;;4974993;28;20228;-64
2022/06/22 09:03:23;;;;;;;4.50;2.07;;;22.70;99.90;;;;;;4983491;28;20210;-64
2022/06/22 09:06:06;;;;;;;4.67;2.00;;;22.70;99.90;;;;;;4993346;28;20278;-61
2022/06/22 09:09:04;;;;;;;4.37;2.10;;;22.60;99.90;;;;;;4994433;28;20242;-61
2022/06/22 09:11:38;;;;;;;6.60;2.40;;;22.70;99.90;;;;;;4993782;28;20208;-61
2022/06/22 09:14:26;;;;;;;2.87;1.90;;;22.40;99.90;;;;;;4993928;28;20258;-60
2022/06/22 09:17:24;;;;;;;6.50;1.80;;;22.50;99.90;;;;;;4989701;28;20278;-61
2022/06/22 09:20:15;;;;;;;4.90;2.07;;;22.60;99.90;;;;;;4993470;28;20710;-62
2022/06/22 09:22:57;;;;;;;4.67;2.27;;;22.80;99.90;;;;;;4993297;28;20747;-59
2022/06/22 09:25:30;;;;;;;4.10;2.10;;;22.90;99.90;;;;;;4993609;28;20208;-63
2022/06/22 09:28:03;;;;;;;4.03;2.30;;;22.90;99.90;;;;;;4993003;28;20234;-63
2022/06/22 09:30:55;;;;;;;8.17;3.50;;;22.90;99.90;;;;;;4993879;28;20286;-64
2022/06/22 09:33:48;;;;;;;6.57;2.53;;;22.90;99.90;;;;;;4993665;28;20639;-62
2022/06/22 09:36:48;;;;;;;2.90;1.73;;;22.70;99.90;;;;;;4993311;28;20227;-62
2022/06/22 09:39:36;;;;;;;3.97;2.03;;;23.00;99.90;;;;;;4987153;28;20616;-63
2022/06/22 09:42:18;;;;;;;2.17;1.93;;;23.30;99.90;;;;;;4993452;28;20207;-63
2022/06/22 09:45:16;;;;;;;3.93;1.80;;;23.70;99.90;;;;;;4993604;28;20211;-62
2022/06/22 09:48:13;;;;;;;6.13;1.90;;;23.90;99.90;;;;;;4992739;28;20215;-64
2022/06/22 09:50:57;;;;;;;5.03;2.27;;;23.80;99.90;;;;;;4991357;28;20208;-62
2022/06/22 09:53:45;;;;;;;5.73;1.80;;;23.80;99.90;;;;;;4993124;28;20266;-62
2022/06/22 09:56:35;;;;;;;4.00;1.80;;;23.70;99.90;;;;;;4990769;28;20231;-63
2022/06/22 09:59:31;;;;;;;3.90;2.13;;;23.90;99.90;;;;;;4993153;28;20278;-65
2022/06/22 10:02:22;;;;;;;2.60;1.70;;;23.80;99.90;;;;;;4993213;28;20215;-66
2022/06/22 10:05:25;;;;;;;5.13;1.87;;;23.90;99.90;;;;;;4992953;28;20215;-65
2022/06/22 10:08:05;;;;;;;4.50;1.83;;;23.80;99.90;;;;;;4993299;28;20265;-64
2022/06/22 10:10:46;;;;;;;3.40;2.10;;;23.70;99.90;;;;;;4992485;28;20203;-66
2022/06/22 10:13:44;;;;;;;8.67;5.33;;;23.40;99.90;;;;;;4992697;28;20211;-63
2022/06/22 10:16:43;;;;;;;8.20;5.07;;;23.60;99.90;;;;;;4991718;28;20235;-64
2022/06/22 10:19:35;;;;;;;5.33;3.00;;;23.80;99.90;;;;;;5089091;28;20542;-64
2022/06/22 10:22:17;;;;;;;5.03;2.20;;;23.90;99.90;;;;;;5088477;28;20674;-63
2022/06/22 10:25:06;;;;;;;6.90;2.40;;;24.00;99.90;;;;;;5088933;28;20230;-63
2022/06/22 10:27:51;;;;;;;3.93;2.10;;;23.80;99.90;;;;;;5067855;28;20346;-63
2022/06/22 10:30:26;;;;;;;5.93;2.30;;;24.00;99.90;;;;;;5068711;28;20628;-62
2022/06/22 10:33:17;;;;;;;3.33;2.10;;;24.10;99.90;;;;;;5068339;28;20204;-62
2022/06/22 10:36:02;;;;;;;6.33;2.20;;;24.20;99.90;;;;;;5068268;28;20315;-62
2022/06/22 10:38:43;;;;;;;6.87;2.03;;;24.50;99.90;;;;;;5068674;28;20315;-63
2022/06/22 10:47:25;;;;;;;6.50;2.47;;;24.30;99.90;;;;;;5067497;28;20736;-65
2022/06/22 10:50:19;;;;;;;3.73;2.17;;;24.40;99.90;;;;;;5068115;28;20205;-64
2022/06/22 10:53:07;;;;;;;6.40;2.03;;;24.60;99.90;;;;;;5067558;28;20668;-64
2022/06/22 10:56:01;;;;;;;4.23;2.20;;;24.80;99.90;;;;;;5067697;28;20225;-62
2022/06/22 10:58:57;;;;;;;5.80;2.20;;;24.80;99.90;;;;;;5067236;28;20708;-63
2022/06/22 11:01:40;;;;;;;7.73;2.50;;;24.30;99.90;;;;;;5062382;28;20255;-62
2022/06/22 11:04:58;;;;;;;7.20;2.40;;;24.40;99.90;;;;;;5067484;28;20291;-62
2022/06/22 11:08:01;;;;;;;8.83;2.30;;;24.30;99.90;;;;;;5067168;28;20217;-62
2022/06/22 11:10:43;;;;;;;3.33;1.90;;;24.70;99.90;;;;;;5056977;28;20208;-61
2022/06/22 11:13:30;;;;;;;4.03;2.03;;;24.90;99.90;;;;;;5067489;28;20209;-63
2022/06/22 11:16:15;;;;;;;7.40;2.00;;;24.80;99.90;;;;;;5066758;28;20229;-63
2022/06/22 11:19:08;;;;;;;4.40;2.00;;;25.00;99.90;;;;;;5067245;28;20270;-63
2022/06/22 11:21:53;;;;;;;2.87;1.80;;;25.20;99.90;;;;;;5066918;28;20213;-62
2022/06/22 11:24:50;;;;;;;5.03;2.07;;;25.20;99.90;;;;;;5067485;28;20726;-64
2022/06/22 11:33:35;;;;;;;3.93;1.90;;;25.00;99.90;;;;;;5053847;28;20683;-65
2022/06/22 11:36:13;;;;;;;2.53;1.80;;;24.90;99.90;;;;;;5053074;28;20229;-65
2022/06/22 11:39:09;;;;;;;5.90;2.50;;;25.10;99.90;;;;;;5053924;28;20644;-63
2022/06/22 11:42:16;;;;;;;5.53;1.93;;;25.00;99.90;;;;;;5053811;28;20668;-63
2022/06/22 11:48:16;;;;;;;4.87;2.77;;;25.10;99.90;;;;;;5053320;28;20330;-59
2022/06/22 11:50:58;;;;;;;7.20;2.10;;;25.40;99.90;;;;;;5053203;28;20205;-62
2022/06/22 11:53:36;;;;;;;3.33;1.83;;;25.70;99.90;;;;;;5053736;28;20206;-65
2022/06/22 11:56:13;;;;;;;4.27;1.97;;;25.60;99.90;;;;;;5053136;28;20229;-64
2022/06/22 11:59:09;;;;;;;2.27;1.40;;;25.70;99.90;;;;;;5053034;28;20233;-64
2022/06/22 12:01:53;;;;;;;6.30;1.97;;;25.80;99.90;;;;;;5053631;28;20209;-65
2022/06/22 12:04:54;;;;;;;3.57;1.60;;;25.40;99.90;;;;;;5052914;28;20236;-65
2022/06/22 12:07:48;;;;;;;1.90;1.50;;;25.50;99.90;;;;;;5052458;28;21360;-65
2022/06/22 12:10:34;;;;;;;2.80;1.50;;;25.60;99.90;;;;;;5053029;28;20205;-64
2022/06/22 12:13:21;;;;;;;2.33;1.23;;;25.80;99.90;;;;;;5053268;28;20210;-65
2022/06/22 12:16:00;;;;;;;4.53;1.80;;;25.70;99.90;;;;;;5052559;28;20230;-62
2022/06/22 12:18:48;;;;;;;7.43;3.20;;;25.50;99.90;;;;;;5053178;28;20221;-63
2022/06/22 12:21:53;;;;;;;4.33;2.00;;;25.50;99.90;;;;;;5052728;28;20233;-63
2022/06/22 12:24:32;;;;;;;3.30;1.60;;;25.60;99.90;;;;;;5025972;28;20206;-63
2022/06/22 12:27:06;;;;;;;8.90;1.93;;;25.50;99.90;;;;;;5032076;28;20229;-63
2022/06/22 12:30:08;;;;;;;3.67;1.67;;;25.60;99.90;;;;;;5032424;28;20252;-63
2022/06/22 12:32:43;;;;;;;3.47;1.47;;;25.50;99.90;;;;;;5032624;28;20206;-63
2022/06/22 12:35:18;;;;;;;4.93;1.87;;;25.70;99.90;;;;;;5048147;28;20205;-64
2022/06/22 12:37:49;;;;;;;4.03;1.53;;;25.90;99.90;;;;;;5051982;28;20657;-63
2022/06/22 12:40:22;;;;;;;9.30;2.00;;;25.90;99.90;;;;;;5052124;28;20205;-64
2022/06/22 12:43:14;;;;;;;6.07;1.93;;;25.90;99.90;;;;;;5052166;28;20267;-64
2022/06/22 12:45:53;;;;;;;1.73;1.43;;;26.00;99.90;;;;;;5052155;28;20229;-64
2022/06/22 12:48:50;;;;;;;5.03;1.50;;;26.00;99.90;;;;;;5033217;28;20265;-62
2022/06/22 12:51:26;;;;;;;4.53;1.60;;;26.00;99.90;;;;;;5032568;28;20237;-62
2022/06/22 12:53:57;;;;;;;2.80;1.97;;;26.10;99.90;;;;;;5032657;28;20210;-61
2022/06/22 12:56:30;;;;;;;2.53;1.80;;;26.00;99.90;;;;;;5031864;28;20257;-61
2022/06/22 12:59:03;;;;;;;5.80;1.90;;;26.00;99.90;;;;;;5032299;28;20770;-61
2022/06/22 13:01:30;;;;;;;7.27;2.10;;;26.30;99.90;;;;;;5032039;28;20739;-62
2022/06/22 13:04:02;;;;;;;2.63;1.63;;;26.60;99.90;;;;;;5049061;28;20205;-63
2022/06/22 13:06:31;;;;;;;3.60;1.90;;;26.50;99.90;;;;;;5051536;28;20741;-63
2022/06/22 13:08:58;;;;;;;2.63;1.63;;;26.40;99.90;;;;;;5051437;28;20680;-63
2022/06/22 13:11:29;;;;;;;3.97;1.60;;;26.00;99.90;;;;;;5051788;28;20202;-62
2022/06/22 13:14:08;;;;;;;3.77;1.97;;;26.00;99.90;;;;;;5051506;28;20202;-62
2022/06/22 13:16:41;;;;;;;5.90;2.30;;;25.90;99.90;;;;;;5050963;28;20260;-63
2022/06/22 13:19:17;;;;;;;3.60;1.83;;;26.00;99.90;;;;;;5051556;28;20651;-62
2022/06/22 13:21:54;;;;;;;3.57;1.77;;;26.30;99.90;;;;;;5051286;28;20205;-63
2022/06/22 13:24:27;;;;;;;3.17;1.60;;;26.40;99.90;;;;;;5051744;28;20211;-62
2022/06/22 13:27:09;;;;;;;3.63;2.00;;;26.70;99.90;;;;;;5049891;28;20732;-63
2022/06/22 13:29:42;;;;;;;4.40;1.80;;;26.80;99.90;;;;;;5051956;28;20760;-62
2022/06/22 13:32:13;;;;;;;2.73;1.73;;;26.90;99.90;;;;;;5051245;28;20694;-59
2022/06/22 13:34:44;;;;;;;4.70;1.73;;;26.70;99.90;;;;;;5050830;28;20677;-59
2022/06/22 13:37:23;;;;;;;4.10;1.50;;;26.50;99.90;;;;;;5051096;28;20233;-59
2022/06/22 13:40:05;;;;;;;3.27;1.63;;;26.40;99.90;;;;;;5051516;28;20320;-58
2022/06/22 13:43:01;;;;;;;6.17;1.50;;;26.50;99.90;;;;;;5051864;28;20205;-58
2022/06/22 13:45:48;;;;;;;3.50;1.83;;;26.90;99.90;;;;;;5045801;28;20241;-61
2022/06/22 13:48:21;;;;;;;3.37;1.67;;;27.00;99.90;;;;;;5051263;28;20205;-59
2022/06/22 13:51:13;;;;;;;4.60;2.00;;;26.90;99.90;;;;;;5051409;28;20201;-59
2022/06/22 13:54:03;;;;;;;2.90;1.80;;;26.70;99.90;;;;;;5051646;28;20198;-63
2022/06/22 13:56:43;;;;;;;5.77;2.20;;;26.70;99.90;;;;;;5050290;28;20225;-64
2022/06/22 13:59:17;;;;;;;2.67;1.53;;;26.80;99.90;;;;;;5051664;28;20598;-62
2022/06/22 14:01:48;;;;;;;4.47;1.80;;;27.00;99.90;;;;;;5051054;28;20280;-60
2022/06/22 14:04:17;;;;;;;4.20;1.60;;;27.20;99.90;;;;;;5052100;28;20642;-59